createdAt,value
2022-08-02T00:01:35.236Z,99922.03
2022-08-02T00:04:09.837Z,99922.50
2022-08-02T00:06:41.551Z,99920.50
2022-08-02T00:09:12.022Z,99931.09
2022-08-02T00:11:43.157Z,99929.50
2022-08-02T00:14:14.312Z,99933.59
2022-08-02T00:16:45.789Z,99934.44
2022-08-02T00:19:18.411Z,99940.59
2022-08-02T00:21:49.753Z,99933.72
2022-08-02T00:24:29.995Z,99927.66
2022-08-02T00:27:09.277Z,99942.31
2022-08-02T00:29:42.683Z,99938.69
2022-08-02T00:32:23.932Z,99934.22
2022-08-02T00:34:57.348Z,99937.06
2022-08-02T00:37:28.438Z,99939.13
2022-08-02T00:39:59.840Z,99929.75
2022-08-02T00:42:30.840Z,99943.19
2022-08-02T00:45:01.785Z,99944.81
2022-08-02T00:47:33.070Z,99941.13
2022-08-02T00:50:05.641Z,99943.97
2022-08-02T00:52:36.858Z,99944.41
2022-08-02T00:55:09.258Z,99943.59
2022-08-02T00:57:42.638Z,99940.41
2022-08-02T01:00:15.137Z,99944.03
2022-08-02T01:02:46.463Z,99935.94
2022-08-02T01:05:21.027Z,99933.91
2022-08-02T01:07:52.158Z,99937.56
2022-08-02T01:10:23.087Z,99934.72
2022-08-02T01:12:53.614Z,99948.94
2022-08-02T01:15:36.049Z,99948.50
2022-08-02T01:18:16.193Z,99944.03
2022-08-02T01:21:43.504Z,99949.28
2022-08-02T01:24:52.008Z,99944.03
2022-08-02T01:27:43.447Z,99941.56
2022-08-02T01:30:17.285Z,99948.50
2022-08-02T01:32:58.457Z,99940.41
2022-08-02T01:35:51.079Z,99949.72
2022-08-02T01:38:32.396Z,99942.88
2022-08-02T01:41:06.123Z,99940.91
2022-08-02T01:43:48.956Z,99940.91
2022-08-02T01:46:24.013Z,99942.13
2022-08-02T01:49:01.637Z,99939.72
2022-08-02T01:51:52.944Z,99946.66
2022-08-02T01:54:30.845Z,99935.72
2022-08-02T01:57:06.809Z,99940.22
2022-08-02T01:59:39.726Z,99950.03
2022-08-02T02:02:15.410Z,99951.25
2022-08-02T02:04:50.318Z,99953.72
2022-08-02T02:07:23.713Z,99952.91
2022-08-02T02:09:57.396Z,99957.81
2022-08-02T02:12:30.912Z,99956.19
2022-08-02T02:15:04.763Z,99960.28
2022-08-02T02:17:53.100Z,99960.28
2022-08-02T02:20:31.451Z,99959.13
2022-08-02T02:23:03.167Z,99954.66
2022-08-02T02:25:41.850Z,99959.56
2022-08-02T02:28:29.441Z,99963.66
2022-08-02T02:31:09.758Z,99970.56
2022-08-02T02:33:51.677Z,99964.06
2022-08-02T02:36:25.503Z,99983.97
2022-08-02T02:38:58.827Z,99972.22
2022-08-02T02:41:30.661Z,99973.03
2022-08-02T02:44:07.150Z,99973.03
2022-08-02T02:46:39.899Z,99977.91
2022-08-02T02:49:15.105Z,99978.72
2022-08-02T02:51:47.359Z,99989.28
2022-08-02T02:54:29.838Z,99983.59
2022-08-02T02:57:08.015Z,99980.41
2022-08-02T02:59:49.373Z,99994.19
2022-08-02T03:02:22.728Z,99991.78
2022-08-02T03:04:58.304Z,99991.78
2022-08-02T03:07:29.881Z,99996.66
2022-08-02T03:10:01.671Z,99991.41
2022-08-02T03:12:34.251Z,99999.94
2022-08-02T03:15:10.398Z,100001.97
2022-08-02T03:17:44.298Z,100004.88
2022-08-02T03:20:23.244Z,99997.56
2022-08-02T03:22:54.442Z,100002.03
2022-08-02T03:25:25.892Z,100001.22
2022-08-02T03:27:56.446Z,100010.56
2022-08-02T03:30:28.572Z,100000.41
2022-08-02T03:33:00.046Z,100004.50
2022-08-02T03:35:33.050Z,100003.69
2022-08-02T03:38:04.675Z,100004.16
2022-08-02T03:40:36.074Z,100000.09
2022-08-02T03:43:08.819Z,99998.06
2022-08-02T03:45:43.004Z,100004.56
2022-08-02T03:48:31.805Z,100005.38
2022-08-02T03:51:08.967Z,100000.47
2022-08-02T03:53:41.138Z,100004.16
2022-08-02T03:56:13.604Z,100002.47
2022-08-02T03:58:48.866Z,100010.56
2022-08-02T04:01:19.948Z,100002.84
2022-08-02T04:03:50.915Z,100008.47
2022-08-02T04:06:28.375Z,100008.84
2022-08-02T04:08:59.963Z,100008.03
2022-08-02T04:11:34.424Z,100010.47
2022-08-02T04:14:08.254Z,100010.00
2022-08-02T04:16:47.271Z,100005.50
2022-08-02T04:19:25.340Z,100008.72
2022-08-02T04:22:00.919Z,100009.88
2022-08-02T04:24:37.613Z,100009.47
2022-08-02T04:27:51.278Z,100004.94
2022-08-02T04:30:05.597Z,100011.00
2022-08-02T04:32:38.772Z,100015.81
2022-08-02T04:35:19.117Z,100012.91
2022-08-02T04:38:08.907Z,100014.09
2022-08-02T04:40:42.337Z,100003.50
2022-08-02T04:43:13.400Z,100005.91
2022-08-02T04:45:45.581Z,100008.72
2022-08-02T04:48:16.663Z,100014.31
2022-08-02T04:50:48.146Z,100012.69
2022-08-02T04:53:22.100Z,100020.78
2022-08-02T04:55:53.971Z,100019.91
2022-08-02T04:58:39.866Z,100018.22
2022-08-02T05:01:11.817Z,100014.97
2022-08-02T05:03:41.967Z,100018.53
2022-08-02T05:06:18.877Z,100020.88
2022-08-02T05:08:54.135Z,100007.81
2022-08-02T05:11:34.446Z,100020.75
2022-08-02T05:14:09.182Z,100017.81
2022-08-02T05:16:40.262Z,100015.34
2022-08-02T05:19:11.348Z,100014.47
2022-08-02T05:21:42.380Z,100011.09
2022-08-02T05:24:15.731Z,100014.63
2022-08-02T05:26:46.922Z,100016.56
2022-08-02T05:29:18.303Z,100006.25
2022-08-02T05:31:49.416Z,100017.13
2022-08-02T05:34:20.702Z,100010.53
2022-08-02T05:36:52.406Z,100016.59
2022-08-02T05:39:25.400Z,100010.03
2022-08-02T05:42:02.735Z,100013.25
2022-08-02T05:44:33.512Z,100005.88
2022-08-02T05:47:05.583Z,100011.03
2022-08-02T05:49:35.889Z,100009.38
2022-08-02T05:52:16.555Z,100012.06
2022-08-02T05:55:00.719Z,100008.66
2022-08-02T05:57:53.932Z,100004.94
2022-08-02T06:00:25.868Z,100002.03
2022-08-02T06:03:19.196Z,100001.16
2022-08-02T06:06:03.717Z,100009.25
2022-08-02T06:08:48.045Z,100018.19
2022-08-02T06:11:25.240Z,100014.09
2022-08-02T06:13:57.638Z,100010.78
2022-08-02T06:16:32.773Z,100006.69
2022-08-02T06:19:04.834Z,100009.53
2022-08-02T06:22:31.847Z,100007.50
2022-08-02T06:24:30.935Z,100006.59
2022-08-02T06:27:06.226Z,100002.00
2022-08-02T06:29:40.689Z,100005.13
2022-08-02T06:32:11.818Z,100013.13
2022-08-02T06:34:44.231Z,100013.03
2022-08-02T06:37:29.824Z,100010.47
2022-08-02T06:40:11.980Z,100013.59
2022-08-02T06:42:54.706Z,100018.72
2022-08-02T06:45:25.918Z,100010.44
2022-08-02T06:47:58.014Z,100015.16
2022-08-02T06:50:29.721Z,100020.31
2022-08-02T06:53:01.136Z,100019.31
2022-08-02T06:55:32.800Z,100022.81
2022-08-02T06:58:17.531Z,100019.75
2022-08-02T07:00:47.994Z,100017.56
2022-08-02T07:03:18.664Z,100021.00
2022-08-02T07:05:49.654Z,100021.63
2022-08-02T07:08:21.422Z,100019.84
2022-08-02T07:10:52.290Z,100021.66
2022-08-02T07:13:25.240Z,100030.84
2022-08-02T07:15:56.300Z,100027.78
2022-08-02T07:18:28.160Z,100030.47
2022-08-02T07:20:59.445Z,100027.88
2022-08-02T07:23:30.934Z,100035.88
2022-08-02T07:26:05.436Z,100034.53
2022-08-02T07:28:39.291Z,100037.63
2022-08-02T07:31:10.555Z,100031.00
2022-08-02T07:33:44.417Z,100038.22
2022-08-02T07:36:22.427Z,100029.06
2022-08-02T07:38:54.319Z,100032.63
2022-08-02T07:41:26.501Z,100034.50
2022-08-02T07:43:59.014Z,100034.75
2022-08-02T07:46:29.486Z,100037.03
2022-08-02T07:49:00.336Z,100035.34
2022-08-02T07:51:32.710Z,100029.50
2022-08-02T07:54:04.769Z,100027.31
2022-08-02T07:56:35.852Z,100025.94
2022-08-02T07:59:10.983Z,100035.22
2022-08-02T08:01:45.034Z,100031.47
2022-08-02T08:04:16.593Z,100030.09
2022-08-02T08:06:50.792Z,100027.91
2022-08-02T08:09:22.940Z,100024.13
2022-08-02T08:11:54.242Z,100017.16
2022-08-02T08:14:27.245Z,100012.59
2022-08-02T08:16:58.228Z,100013.72
2022-08-02T08:19:43.948Z,100021.75
2022-08-02T08:22:20.695Z,100017.97
2022-08-02T08:24:52.406Z,100020.72
2022-08-02T08:27:23.705Z,100016.94
2022-08-02T08:29:56.882Z,100011.09
2022-08-02T08:32:27.639Z,100013.03
2022-08-02T08:34:58.070Z,100014.97
2022-08-02T08:37:29.201Z,100015.66
2022-08-02T08:40:00.213Z,100011.53
2022-08-02T08:42:32.029Z,100012.69
2022-08-02T08:45:04.899Z,100010.47
2022-08-02T08:47:38.429Z,100017.34
2022-08-02T08:50:26.937Z,100008.66
2022-08-02T08:53:08.227Z,100012.22
2022-08-02T08:55:40.830Z,100000.75
2022-08-02T08:58:11.434Z,100001.88
2022-08-02T09:00:44.685Z,100002.72
2022-08-02T09:03:15.979Z,99993.19
2022-08-02T09:05:47.777Z,100003.38
2022-08-02T09:08:19.580Z,99995.13
2022-08-02T09:10:50.965Z,99995.13
2022-08-02T09:13:31.371Z,99993.97
2022-08-02T09:16:18.323Z,100008.31
2022-08-02T09:18:50.490Z,100002.56
2022-08-02T09:21:21.558Z,100007.03
2022-08-02T09:23:56.143Z,100000.41
2022-08-02T09:26:28.957Z,99994.19
2022-08-02T09:29:05.493Z,100001.88
2022-08-02T09:31:40.697Z,99997.75
2022-08-02T09:34:22.935Z,99998.53
2022-08-02T09:36:55.427Z,99995.19
2022-08-02T09:39:28.101Z,99991.06
2022-08-02T09:42:14.097Z,99993.81
2022-08-02T09:44:58.304Z,99992.53
2022-08-02T09:47:37.306Z,99996.66
2022-08-02T09:50:14.870Z,99994.63
2022-08-02T09:52:46.363Z,99999.53
2022-08-02T09:55:17.074Z,100000.78
2022-08-02T09:57:51.063Z,100000.94
2022-08-02T10:00:43.410Z,99996.16
2022-08-02T10:03:22.169Z,99996.94
2022-08-02T10:06:02.230Z,99991.69
2022-08-02T10:08:35.335Z,99992.59
2022-08-02T10:11:06.477Z,99996.28
2022-08-02T10:13:38.624Z,99986.41
2022-08-02T10:16:09.336Z,99996.59
2022-08-02T10:18:43.140Z,99996.94
2022-08-02T10:21:30.444Z,99998.53
2022-08-02T10:24:10.202Z,99985.81
2022-08-02T10:26:45.541Z,99995.66
2022-08-02T10:29:22.283Z,99998.19
2022-08-02T10:32:00.395Z,99990.06
2022-08-02T10:34:38.407Z,99992.94
2022-08-02T10:37:15.037Z,99979.41
2022-08-02T10:39:50.867Z,99992.81
2022-08-02T10:42:51.358Z,99988.00
2022-08-02T10:45:25.864Z,99986.41
2022-08-02T10:48:06.761Z,99988.94
2022-08-02T10:51:07.119Z,99978.75
2022-08-02T10:53:37.965Z,99980.34
2022-08-02T10:56:09.770Z,99977.81
2022-08-02T10:58:41.455Z,99980.22
2022-08-02T11:01:38.894Z,99987.06
2022-08-02T11:04:11.879Z,99984.22
2022-08-02T11:07:17.748Z,99981.00
2022-08-02T11:09:49.459Z,99981.47
2022-08-02T11:12:22.769Z,99976.53
2022-08-02T11:15:07.722Z,99976.09
2022-08-02T11:17:57.954Z,99981.00
2022-08-02T11:20:29.295Z,99976.53
2022-08-02T11:23:45.191Z,99979.75
2022-08-02T11:26:48.438Z,99971.16
2022-08-02T11:29:20.829Z,99976.41
2022-08-02T11:31:52.739Z,99968.63
2022-08-02T11:34:36.824Z,99965.28
2022-08-02T11:37:10.575Z,99964.94
2022-08-02T11:39:43.187Z,99964.94
2022-08-02T11:42:14.029Z,99962.56
2022-08-02T11:44:47.840Z,99968.63
2022-08-02T11:47:20.627Z,99972.41
2022-08-02T11:49:52.015Z,99968.75
2022-08-02T11:52:41.994Z,99969.22
2022-08-02T11:55:16.172Z,99966.03
2022-08-02T11:58:03.228Z,99966.47
2022-08-02T12:00:37.253Z,99973.03
2022-08-02T12:03:10.626Z,99970.94
2022-08-02T12:06:04.712Z,99975.06
2022-08-02T12:08:32.902Z,99968.69
2022-08-02T12:11:07.873Z,99973.16
2022-08-02T12:13:56.529Z,99972.69
2022-08-02T12:16:44.882Z,99971.41
2022-08-02T12:19:27.939Z,99968.22
2022-08-02T12:22:19.852Z,99970.72
2022-08-02T12:24:57.244Z,99965.47
2022-08-02T12:27:42.198Z,99971.22
2022-08-02T12:30:16.098Z,99971.69
2022-08-02T12:32:48.334Z,99968.34
2022-08-02T12:35:26.402Z,99970.38
2022-08-02T12:37:59.508Z,99967.53
2022-08-02T12:40:36.761Z,99970.06
2022-08-02T12:43:18.844Z,99970.97
2022-08-02T12:45:53.621Z,99959.63
2022-08-02T12:48:56.498Z,99957.56
2022-08-02T12:51:50.872Z,99970.88
2022-08-02T12:54:31.492Z,99976.72
2022-08-02T12:57:15.055Z,99976.03
2022-08-02T12:59:55.863Z,99970.44
2022-08-02T13:02:35.035Z,99967.22
2022-08-02T13:05:06.914Z,99978.34
2022-08-02T13:07:37.840Z,99970.69
2022-08-02T13:10:09.365Z,99984.19
2022-08-02T13:12:41.101Z,99978.13
2022-08-02T13:15:49.149Z,99972.50
2022-08-02T13:18:06.131Z,99977.56
2022-08-02T13:20:40.246Z,99973.22
2022-08-02T13:23:21.073Z,99971.28
2022-08-02T13:25:55.910Z,99968.03
2022-08-02T13:28:27.480Z,99966.91
2022-08-02T13:31:20.609Z,99974.47
2022-08-02T13:33:51.756Z,99973.44
2022-08-02T13:36:22.915Z,99964.50
2022-08-02T13:38:54.735Z,99966.56
2022-08-02T13:41:26.435Z,99974.94
2022-08-02T13:44:06.161Z,99969.75
2022-08-02T13:46:45.259Z,99965.88
2022-08-02T13:49:19.815Z,99968.50
2022-08-02T13:51:51.463Z,99972.75
2022-08-02T13:54:22.768Z,99963.44
2022-08-02T13:56:54.170Z,99973.72
2022-08-02T13:59:56.788Z,99966.09
2022-08-02T14:02:18.672Z,99968.25
2022-08-02T14:04:49.940Z,99967.09
2022-08-02T14:07:22.098Z,99966.75
2022-08-02T14:09:52.491Z,99956.22
2022-08-02T14:12:23.519Z,99957.47
2022-08-02T14:14:55.614Z,99956.69
2022-08-02T14:17:30.168Z,99956.22
2022-08-02T14:20:01.842Z,99961.16
2022-08-02T14:22:32.409Z,99954.63
2022-08-02T14:25:09.694Z,99964.44
2022-08-02T14:27:40.202Z,99960.44
2022-08-02T14:30:12.114Z,99956.44
2022-08-02T14:32:44.718Z,99956.91
2022-08-02T14:35:16.617Z,99955.75
2022-08-02T14:37:48.993Z,99957.34
2022-08-02T14:40:27.882Z,99961.13
2022-08-02T14:43:04.182Z,99961.22
2022-08-02T14:45:39.842Z,99962.16
2022-08-02T14:48:15.213Z,99969.91
2022-08-02T14:50:46.346Z,99959.72
2022-08-02T14:53:16.627Z,99960.06
2022-08-02T14:55:48.449Z,99961.34
2022-08-02T14:58:19.785Z,99958.94
2022-08-02T15:00:51.549Z,99957.34
2022-08-02T15:03:29.495Z,99954.59
2022-08-02T15:06:01.682Z,99955.44
2022-08-02T15:08:33.577Z,99957.94
2022-08-02T15:11:04.275Z,99949.38
2022-08-02T15:13:38.103Z,99949.06
2022-08-02T15:16:13.880Z,99954.41
2022-08-02T15:18:47.182Z,99955.31
2022-08-02T15:21:41.777Z,99943.19
2022-08-02T15:24:11.989Z,99947.84
2022-08-02T15:26:43.045Z,99944.28
2022-08-02T15:29:14.154Z,99944.75
2022-08-02T15:31:46.033Z,99950.09
2022-08-02T15:34:18.964Z,99948.97
2022-08-02T15:36:50.255Z,99949.84
2022-08-02T15:39:21.808Z,99949.53
2022-08-02T15:41:55.976Z,99950.44
2022-08-02T15:44:27.589Z,99951.31
2022-08-02T15:46:58.843Z,99958.75
2022-08-02T15:49:31.871Z,99954.28
2022-08-02T15:52:05.665Z,99955.59
2022-08-02T15:54:36.405Z,99955.25
2022-08-02T15:57:08.453Z,99960.94
2022-08-02T15:59:39.674Z,99964.72
2022-08-02T16:02:11.768Z,99958.66
2022-08-02T16:04:44.880Z,99960.34
2022-08-02T16:07:15.711Z,99962.03
2022-08-02T16:09:46.270Z,99962.50
2022-08-02T16:12:17.589Z,99960.91
2022-08-02T16:14:48.824Z,99967.06
2022-08-02T16:17:48.250Z,99972.41
2022-08-02T16:20:14.834Z,99967.59
2022-08-02T16:22:46.212Z,99973.75
2022-08-02T16:25:17.615Z,99968.47
2022-08-02T16:28:06.007Z,99973.84
2022-08-02T16:30:39.239Z,99978.84
2022-08-02T16:33:10.512Z,99979.31
2022-08-02T16:35:47.721Z,99980.56
2022-08-02T16:38:18.704Z,99985.09
2022-08-02T16:40:49.637Z,99983.94
2022-08-02T16:43:22.229Z,99980.28
2022-08-02T16:45:53.508Z,99975.81
2022-08-02T16:48:25.516Z,99982.31
2022-08-02T16:50:58.893Z,99990.09
2022-08-02T16:53:58.976Z,99987.34
2022-08-02T16:56:29.880Z,99995.16
2022-08-02T16:59:02.409Z,99994.81
2022-08-02T17:02:03.345Z,99997.28
2022-08-02T17:04:25.283Z,99999.78
2022-08-02T17:07:01.838Z,100003.41
2022-08-02T17:10:02.046Z,100002.63
2022-08-02T17:12:23.351Z,99999.06
2022-08-02T17:17:45.520Z,100002.88
2022-08-02T17:20:17.348Z,99995.13
2022-08-02T17:22:52.184Z,99998.09
2022-08-02T17:25:24.783Z,100004.66
2022-08-02T17:27:56.494Z,100011.25
2022-08-02T17:30:28.816Z,100012.16
2022-08-02T17:32:59.599Z,100014.28
2022-08-02T17:35:40.022Z,100010.28
2022-08-02T17:38:26.341Z,100022.56
2022-08-02T17:40:59.351Z,100020.16
2022-08-02T17:43:31.476Z,100018.09
2022-08-02T17:46:03.506Z,100023.38
2022-08-02T17:48:55.506Z,100022.19
2022-08-02T17:52:15.944Z,100028.78
2022-08-02T17:54:21.914Z,100026.81
2022-08-02T17:56:54.567Z,100031.28
2022-08-02T17:59:31.109Z,100036.53
2022-08-02T18:02:13.379Z,100040.19
2022-08-02T18:04:48.843Z,100034.56
2022-08-02T18:07:25.274Z,100039.91
2022-08-02T18:09:58.259Z,100037.91
2022-08-02T18:12:30.275Z,100030.69
2022-08-02T18:15:00.912Z,100035.22
2022-08-02T18:17:32.791Z,100030.41
2022-08-02T18:20:10.197Z,100035.31
2022-08-02T18:22:44.913Z,100038.16
2022-08-02T18:25:37.528Z,100041.72
2022-08-02T18:28:10.039Z,100045.00
2022-08-02T18:30:42.926Z,100039.75
2022-08-02T18:33:57.605Z,100041.34
2022-08-02T18:36:06.292Z,100049.09
2022-08-02T18:38:39.617Z,100040.56
2022-08-02T18:41:18.952Z,100043.84
2022-08-02T18:43:52.973Z,100039.41
2022-08-02T18:46:24.288Z,100037.34
2022-08-02T18:49:06.751Z,100034.84
2022-08-02T18:51:46.411Z,100038.16
2022-08-02T18:54:26.583Z,100037.72
2022-08-02T18:57:04.215Z,100037.72
2022-08-02T18:59:55.259Z,100025.56
2022-08-02T19:02:26.011Z,100032.09
2022-08-02T19:05:00.382Z,100027.19
2022-08-02T19:07:50.387Z,100029.25
2022-08-02T19:10:23.441Z,100028.78
2022-08-02T19:12:58.934Z,100035.66
2022-08-02T19:15:31.668Z,100027.09
2022-08-02T19:18:02.725Z,100031.63
2022-08-02T19:20:35.945Z,100023.16
2022-08-02T19:23:10.381Z,100027.72
2022-08-02T19:25:50.311Z,100040.78
2022-08-02T19:28:29.055Z,100035.16
2022-08-02T19:31:00.800Z,100033.53
2022-08-02T19:34:04.749Z,100023.41
2022-08-02T19:36:22.549Z,100032.75
2022-08-02T19:38:57.159Z,100027.84
2022-08-02T19:41:28.463Z,100031.06
2022-08-02T19:44:26.508Z,100025.38
2022-08-02T19:47:00.331Z,100027.84
2022-08-02T19:49:39.420Z,100017.25
2022-08-02T19:52:21.869Z,100014.41
2022-08-02T19:54:57.904Z,100011.19
2022-08-02T19:57:34.455Z,100007.56
2022-08-02T20:00:13.434Z,100013.69
2022-08-02T20:02:52.951Z,100016.53
2022-08-02T20:05:27.133Z,100016.97
2022-08-02T20:07:59.603Z,100014.59
2022-08-02T20:10:32.110Z,100014.22
2022-08-02T20:13:04.657Z,100013.47
2022-08-02T20:15:55.723Z,100015.53
2022-08-02T20:18:30.130Z,100013.91
2022-08-02T20:21:01.286Z,100017.13
2022-08-02T20:23:34.430Z,100020.31
2022-08-02T20:26:09.026Z,100017.06
2022-08-02T20:28:39.961Z,100008.50
2022-08-02T20:31:12.962Z,100006.03
2022-08-02T20:33:55.479Z,100009.66
2022-08-02T20:36:27.924Z,100005.59
2022-08-02T20:38:59.740Z,100011.28
2022-08-02T20:41:36.746Z,100013.69
2022-08-02T20:44:15.438Z,100007.19
2022-08-02T20:47:04.000Z,100004.34
2022-08-02T20:49:40.875Z,100011.66
2022-08-02T20:52:23.450Z,100008.34
2022-08-02T20:54:55.587Z,100005.94
2022-08-02T20:57:48.869Z,100001.88
2022-08-02T21:00:18.062Z,100012.88
2022-08-02T21:02:54.431Z,100007.59
2022-08-02T21:05:43.294Z,100008.06
2022-08-02T21:08:16.172Z,99996.28
2022-08-02T21:10:52.015Z,100007.69
2022-08-02T21:13:26.169Z,99999.59
2022-08-02T21:16:02.165Z,100000.84
2022-08-02T21:18:42.823Z,99999.59
2022-08-02T21:21:14.619Z,99996.38
2022-08-02T21:23:48.923Z,99992.38
2022-08-02T21:26:30.526Z,99992.88
2022-08-02T21:29:06.092Z,99988.88
2022-08-02T21:31:37.649Z,100000.69
2022-08-02T21:34:26.588Z,99995.78
2022-08-02T21:36:58.650Z,99995.00
2022-08-02T21:39:30.401Z,99987.25
2022-08-02T21:42:01.878Z,99989.69
2022-08-02T21:44:33.274Z,99992.09
2022-08-02T21:47:04.823Z,99990.03
2022-08-02T21:50:08.687Z,99995.28
2022-08-02T21:52:31.398Z,100001.78
2022-08-02T21:55:05.980Z,100002.59
2022-08-02T21:57:40.094Z,99998.53
2022-08-02T22:00:16.665Z,99993.59
2022-08-02T22:03:00.761Z,100000.53
2022-08-02T22:05:53.893Z,99994.84
2022-08-02T22:08:25.169Z,99981.84
2022-08-02T22:11:16.851Z,99989.16
2022-08-02T22:13:48.964Z,99980.25
2022-08-02T22:16:21.901Z,99978.22
2022-08-02T22:18:53.668Z,99981.06
2022-08-02T22:21:32.369Z,99984.69
2022-08-02T22:24:19.531Z,99983.53
2022-08-02T22:26:58.965Z,99985.59
2022-08-02T22:29:30.965Z,99989.22
2022-08-02T22:32:03.205Z,99992.53
2022-08-02T22:34:51.661Z,99994.94
2022-08-02T22:38:17.052Z,99984.78
2022-08-02T22:40:16.350Z,99979.06
2022-08-02T22:42:47.521Z,99988.88
2022-08-02T22:45:18.832Z,99989.69
2022-08-02T22:47:51.104Z,99978.28
2022-08-02T22:50:22.615Z,99979.53
2022-08-02T22:52:55.533Z,99974.63
2022-08-02T22:55:32.287Z,99975.84
2022-08-02T22:58:04.539Z,99975.84
2022-08-02T22:58:37.496Z,99993.44
2022-08-02T23:00:36.030Z,99981.56
2022-08-02T23:03:07.443Z,99973.84
2022-08-02T23:05:39.532Z,99980.31
2022-08-02T23:08:12.800Z,99973.00
2022-08-02T23:10:44.073Z,99974.25
2022-08-02T23:13:15.113Z,99970.63
2022-08-02T23:16:03.828Z,99976.72
2022-08-02T23:19:02.686Z,99971.44
2022-08-02T23:22:02.282Z,99988.16
2022-08-02T23:24:38.949Z,99981.69
2022-08-02T23:27:10.842Z,99980.06
2022-08-02T23:29:42.499Z,99982.13
2022-08-02T23:32:14.762Z,99979.28
2022-08-02T23:34:46.854Z,99973.59
2022-08-02T23:37:23.139Z,99980.06
2022-08-02T23:39:56.315Z,99976.44
2022-08-02T23:42:27.468Z,99984.16
2022-08-02T23:44:58.345Z,99988.63
2022-08-02T23:47:29.561Z,99988.63
2022-08-02T23:50:00.459Z,99986.22
2022-08-02T23:52:31.773Z,99991.91
2022-08-02T23:55:05.468Z,99978.91
2022-08-02T23:57:36.453Z,99987.47
